Time;durP1;ratioP1;P1;durP2;ratioP2;P2;SDS_P1;SDS_P2;PMS_P1;PMS_P2;Temp;Humidity;BMP_temperature;BMP_pressure;BME280_temperature;BME280_humidity;BME280_pressure;Samples;Min_cycle;Max_cycle;Signal;HPM_P1;HPM_P2
2023/12/21 00:00:13;;;;;;;;;0.75;0.75;;;;;;;;5065661;28;9416;-80
2023/12/21 00:02:44;;;;;;;;;1.00;1.00;;;;;;;;5079538;28;9609;-79
2023/12/21 00:05:13;;;;;;;;;0.75;0.75;;;;;;;;5083320;28;9468;-80
2023/12/21 00:07:43;;;;;;;;;0.75;0.75;;;;;;;;5090160;28;10250;-79
2023/12/21 00:10:12;;;;;;;;;0.00;0.00;;;;;;;;5075073;28;9542;-80
2023/12/21 00:12:39;;;;;;;;;3.75;2.00;;;;;;;;5069564;28;9592;-79
2023/12/21 00:15:07;;;;;;;;;3.00;1.00;;;;;;;;5064378;28;9662;-79
2023/12/21 00:17:35;;;;;;;;;0.00;0.00;;;;;;;;5064038;28;9464;-79
2023/12/21 00:20:08;;;;;;;;;0.00;0.00;;;;;;;;5064977;28;9537;-79
2023/12/21 00:22:36;;;;;;;;;2.00;0.00;;;;;;;;5062707;28;9667;-79
2023/12/21 00:25:04;;;;;;;;;1.00;1.00;;;;;;;;5054217;28;9580;-80
2023/12/21 00:27:31;;;;;;;;;1.00;1.00;;;;;;;;5072172;28;9542;-80
2023/12/21 00:29:59;;;;;;;;;1.50;1.50;;;;;;;;5066020;28;9645;-80
2023/12/21 00:32:29;;;;;;;;;1.00;1.00;;;;;;;;5067807;28;9549;-80
2023/12/21 00:34:57;;;;;;;;;1.75;1.75;;;;;;;;5068005;28;9696;-80
2023/12/21 00:37:26;;;;;;;;;4.00;2.00;;;;;;;;5068408;28;9497;-80
2023/12/21 00:39:53;;;;;;;;;2.00;2.00;;;;;;;;5067051;28;9627;-80
2023/12/21 00:42:20;;;;;;;;;2.00;2.00;;;;;;;;5067387;28;9535;-79
2023/12/21 00:44:47;;;;;;;;;2.00;0.00;;;;;;;;5070515;28;9543;-80
2023/12/21 00:47:15;;;;;;;;;0.00;0.00;;;;;;;;5071024;28;9563;-80
2023/12/21 00:49:45;;;;;;;;;5.75;2.00;;;;;;;;5074170;28;9698;-80
2023/12/21 00:52:12;;;;;;;;;2.00;2.00;;;;;;;;5075175;28;10573;-80
2023/12/21 00:54:41;;;;;;;;;3.00;1.00;;;;;;;;5063956;28;9546;-80
2023/12/21 00:57:08;;;;;;;;;1.50;1.50;;;;;;;;5074515;28;9683;-80
2023/12/21 00:59:36;;;;;;;;;1.00;1.00;;;;;;;;5063476;28;9628;-79
2023/12/21 01:02:03;;;;;;;;;3.75;2.25;;;;;;;;5059908;28;9576;-78
2023/12/21 01:04:30;;;;;;;;;3.50;2.50;;;;;;;;5063048;28;9689;-79
2023/12/21 01:06:57;;;;;;;;;3.50;2.00;;;;;;;;5072592;28;9827;-79
2023/12/21 01:09:25;;;;;;;;;1.00;1.00;;;;;;;;5069137;28;9636;-80
2023/12/21 01:11:53;;;;;;;;;1.00;1.00;;;;;;;;5075183;28;9627;-80
2023/12/21 01:14:21;;;;;;;;;1.50;1.50;;;;;;;;5066721;28;9560;-79
2023/12/21 01:16:49;;;;;;;;;0.75;0.75;;;;;;;;5068423;28;9612;-80
2023/12/21 01:19:16;;;;;;;;;2.00;2.00;;;;;;;;5071085;28;9531;-80
2023/12/21 01:21:43;;;;;;;;;2.75;1.25;;;;;;;;5070745;28;10291;-79
2023/12/21 01:24:10;;;;;;;;;1.50;1.00;;;;;;;;5057939;28;9650;-80
2023/12/21 01:26:38;;;;;;;;;1.00;1.00;;;;;;;;5067776;28;10347;-80
2023/12/21 01:29:06;;;;;;;;;1.00;1.00;;;;;;;;5070616;28;9753;-80
2023/12/21 01:31:33;;;;;;;;;2.00;2.00;;;;;;;;5070278;28;9636;-79
2023/12/21 01:34:01;;;;;;;;;1.50;1.00;;;;;;;;5073362;28;9626;-79
2023/12/21 01:36:28;;;;;;;;;0.00;0.00;;;;;;;;5073520;28;9532;-80
2023/12/21 01:38:56;;;;;;;;;1.00;1.00;;;;;;;;5072756;28;9547;-80
2023/12/21 01:41:24;;;;;;;;;1.75;1.75;;;;;;;;5071152;28;9622;-79
2023/12/21 01:43:51;;;;;;;;;0.25;0.25;;;;;;;;5070730;28;10471;-79
2023/12/21 01:46:19;;;;;;;;;2.75;1.50;;;;;;;;5070279;28;9701;-80
2023/12/21 01:48:48;;;;;;;;;1.50;1.50;;;;;;;;5070728;28;9532;-79
2023/12/21 01:51:15;;;;;;;;;2.75;2.75;;;;;;;;5070012;28;9671;-78
2023/12/21 01:53:43;;;;;;;;;2.00;2.00;;;;;;;;5070733;28;9688;-78
2023/12/21 01:56:10;;;;;;;;;1.00;1.00;;;;;;;;5070519;28;9671;-79
2023/12/21 01:58:40;;;;;;;;;2.00;2.00;;;;;;;;5072724;28;9660;-79
2023/12/21 02:01:08;;;;;;;;;2.75;1.00;;;;;;;;5071165;28;10337;-79
2023/12/21 02:03:37;;;;;;;;;3.00;2.00;;;;;;;;5071706;28;9818;-79
2023/12/21 02:06:05;;;;;;;;;1.25;1.25;;;;;;;;5059768;28;9583;-78
2023/12/21 02:08:32;;;;;;;;;1.00;1.00;;;;;;;;5069913;28;9534;-79
2023/12/21 02:11:01;;;;;;;;;0.00;0.00;;;;;;;;5070538;28;9653;-79
2023/12/21 02:13:28;;;;;;;;;2.00;0.25;;;;;;;;5069636;28;9664;-79
2023/12/21 02:15:59;;;;;;;;;1.25;1.25;;;;;;;;5069418;28;9557;-80
2023/12/21 02:18:26;;;;;;;;;1.25;1.25;;;;;;;;5070331;28;9633;-79
2023/12/21 02:20:56;;;;;;;;;0.00;0.00;;;;;;;;5070371;28;9622;-79
2023/12/21 02:23:24;;;;;;;;;0.50;0.50;;;;;;;;5067547;28;9620;-80
2023/12/21 02:25:52;;;;;;;;;1.00;1.00;;;;;;;;5071216;28;9650;-80
2023/12/21 02:28:20;;;;;;;;;4.75;2.00;;;;;;;;5069708;28;9656;-80
2023/12/21 02:30:47;;;;;;;;;1.00;1.00;;;;;;;;5072201;28;9552;-78
2023/12/21 02:33:14;;;;;;;;;0.00;0.00;;;;;;;;5067588;28;9637;-79
2023/12/21 02:35:42;;;;;;;;;2.00;0.50;;;;;;;;5071887;28;9468;-79
2023/12/21 02:38:10;;;;;;;;;1.00;1.00;;;;;;;;5073395;28;9584;-79
2023/12/21 02:40:37;;;;;;;;;1.00;1.00;;;;;;;;5070942;28;9644;-78
2023/12/21 02:43:06;;;;;;;;;1.00;1.00;;;;;;;;5070869;28;9549;-78
2023/12/21 02:45:33;;;;;;;;;0.25;0.00;;;;;;;;5077286;28;9459;-78
2023/12/21 02:48:00;;;;;;;;;1.00;1.00;;;;;;;;5069343;28;9580;-79
2023/12/21 02:50:27;;;;;;;;;0.75;0.75;;;;;;;;5069564;28;9646;-79
2023/12/21 02:52:55;;;;;;;;;0.00;0.00;;;;;;;;5075639;28;9449;-79
2023/12/21 02:55:22;;;;;;;;;1.00;1.00;;;;;;;;5071103;28;9455;-79
2023/12/21 02:57:49;;;;;;;;;0.50;0.50;;;;;;;;5071510;28;9550;-79
2023/12/21 03:00:19;;;;;;;;;1.00;1.00;;;;;;;;5071915;28;9556;-79
2023/12/21 03:02:46;;;;;;;;;1.00;1.00;;;;;;;;5072598;28;9664;-79
2023/12/21 03:05:13;;;;;;;;;1.00;1.00;;;;;;;;5070463;28;9574;-79
2023/12/21 03:07:40;;;;;;;;;0.25;0.25;;;;;;;;5068864;28;9608;-79
2023/12/21 03:10:08;;;;;;;;;0.00;0.00;;;;;;;;5067175;28;9752;-79
2023/12/21 03:12:35;;;;;;;;;2.00;0.25;;;;;;;;5068998;28;9430;-79
2023/12/21 03:15:03;;;;;;;;;1.50;1.00;;;;;;;;5068200;28;9451;-79
2023/12/21 03:17:32;;;;;;;;;1.00;1.00;;;;;;;;5069600;28;9477;-80
2023/12/21 03:20:01;;;;;;;;;1.00;1.00;;;;;;;;5069670;28;9468;-79
2023/12/21 03:22:28;;;;;;;;;1.00;1.00;;;;;;;;5071728;28;9586;-79
2023/12/21 03:24:56;;;;;;;;;1.50;1.00;;;;;;;;5063588;28;9542;-80
2023/12/21 03:27:23;;;;;;;;;3.00;1.00;;;;;;;;5061491;28;10458;-79
2023/12/21 03:29:52;;;;;;;;;1.00;1.00;;;;;;;;5055580;28;9682;-79
2023/12/21 03:32:23;;;;;;;;;0.00;0.00;;;;;;;;5067381;28;9485;-79
2023/12/21 03:34:51;;;;;;;;;1.00;1.00;;;;;;;;5056219;28;9409;-79
2023/12/21 03:37:18;;;;;;;;;1.00;1.00;;;;;;;;5068393;28;9473;-80
2023/12/21 03:39:46;;;;;;;;;1.00;1.00;;;;;;;;5067966;28;9533;-80
2023/12/21 03:42:13;;;;;;;;;1.00;1.00;;;;;;;;5059470;28;9512;-79
2023/12/21 03:44:40;;;;;;;;;1.00;1.00;;;;;;;;5064747;28;9545;-80
2023/12/21 03:47:07;;;;;;;;;1.00;1.00;;;;;;;;5068262;28;9483;-80
2023/12/21 03:49:35;;;;;;;;;3.00;1.25;;;;;;;;5068103;28;9293;-80
2023/12/21 03:52:04;;;;;;;;;2.75;1.00;;;;;;;;5068359;28;9500;-80
2023/12/21 03:54:31;;;;;;;;;1.00;1.00;;;;;;;;5065519;28;9515;-80
2023/12/21 03:56:58;;;;;;;;;0.00;0.00;;;;;;;;5068073;28;9369;-79
2023/12/21 03:59:26;;;;;;;;;0.00;0.00;;;;;;;;5068344;28;9416;-79
2023/12/21 04:01:53;;;;;;;;;0.00;0.00;;;;;;;;5067447;28;9379;-79
2023/12/21 04:04:20;;;;;;;;;0.00;0.00;;;;;;;;5069049;28;9422;-79
2023/12/21 04:06:47;;;;;;;;;0.00;0.00;;;;;;;;5068128;28;9402;-79
2023/12/21 04:09:17;;;;;;;;;1.00;1.00;;;;;;;;5067347;28;9387;-79
2023/12/21 04:11:45;;;;;;;;;0.33;0.33;;;;;;;;5068644;28;9514;-79
2023/12/21 04:14:12;;;;;;;;;2.00;0.33;;;;;;;;5069101;28;9271;-79
2023/12/21 04:16:39;;;;;;;;;2.00;0.00;;;;;;;;5067997;28;9492;-79
2023/12/21 04:19:07;;;;;;;;;1.00;1.00;;;;;;;;5068696;28;9403;-79
2023/12/21 04:21:35;;;;;;;;;2.50;1.00;;;;;;;;5067815;28;9421;-80
2023/12/21 04:24:02;;;;;;;;;0.00;0.00;;;;;;;;5068377;28;10281;-79
2023/12/21 04:26:32;;;;;;;;;0.67;0.67;;;;;;;;5072523;28;9600;-79
2023/12/21 04:28:59;;;;;;;;;0.00;0.00;;;;;;;;5072439;28;10097;-79
2023/12/21 04:31:27;;;;;;;;;0.00;0.00;;;;;;;;5073815;28;10159;-79
2023/12/21 04:33:54;;;;;;;;;0.00;0.00;;;;;;;;5068638;28;9397;-79
2023/12/21 04:36:21;;;;;;;;;0.00;0.00;;;;;;;;5075670;28;9448;-79
2023/12/21 04:38:48;;;;;;;;;0.00;0.00;;;;;;;;5066288;28;9387;-79
2023/12/21 04:41:16;;;;;;;;;0.00;0.00;;;;;;;;5078533;28;9317;-78
2023/12/21 04:43:45;;;;;;;;;0.00;0.00;;;;;;;;5074890;28;9262;-79
2023/12/21 04:46:12;;;;;;;;;0.00;0.00;;;;;;;;5073791;28;9432;-79
2023/12/21 04:48:40;;;;;;;;;0.00;0.00;;;;;;;;5072868;28;9337;-79
2023/12/21 04:51:07;;;;;;;;;0.00;0.00;;;;;;;;5075845;28;9337;-80
2023/12/21 04:53:34;;;;;;;;;1.00;1.00;;;;;;;;5074226;28;9377;-79
2023/12/21 04:56:04;;;;;;;;;1.00;0.00;;;;;;;;5063075;28;9326;-79
2023/12/21 04:58:32;;;;;;;;;3.00;0.00;;;;;;;;5053022;28;9923;-78
2023/12/21 05:01:01;;;;;;;;;2.00;0.67;;;;;;;;5069159;28;9336;-78
2023/12/21 05:03:28;;;;;;;;;0.00;0.00;;;;;;;;5070110;28;9331;-79
2023/12/21 05:05:58;;;;;;;;;0.00;0.00;;;;;;;;5077075;28;9319;-79
2023/12/21 05:08:26;;;;;;;;;1.00;1.00;;;;;;;;5082217;28;9323;-78
2023/12/21 05:10:53;;;;;;;;;1.00;1.00;;;;;;;;5063575;28;9265;-81
2023/12/21 05:13:20;;;;;;;;;3.00;3.00;;;;;;;;5057851;28;9303;-81
2023/12/21 05:15:48;;;;;;;;;0.67;0.67;;;;;;;;5062217;28;9411;-81
2023/12/21 05:18:17;;;;;;;;;0.67;0.67;;;;;;;;5065189;28;9340;-81
2023/12/21 05:20:44;;;;;;;;;1.00;1.00;;;;;;;;5069915;28;9343;-81
2023/12/21 05:23:11;;;;;;;;;0.00;0.00;;;;;;;;5070493;28;9204;-81
2023/12/21 05:25:38;;;;;;;;;0.00;0.00;;;;;;;;5066931;28;9190;-81
2023/12/21 05:28:06;;;;;;;;;0.67;0.33;;;;;;;;5061944;28;9254;-81
2023/12/21 05:30:34;;;;;;;;;0.00;0.00;;;;;;;;5067219;28;9160;-81
2023/12/21 05:33:01;;;;;;;;;0.00;0.00;;;;;;;;5063298;28;9281;-81
2023/12/21 05:35:29;;;;;;;;;0.33;0.00;;;;;;;;5070532;28;10019;-81
2023/12/21 05:37:57;;;;;;;;;1.00;0.00;;;;;;;;5066128;28;9111;-80
2023/12/21 05:40:24;;;;;;;;;0.00;0.00;;;;;;;;5066448;28;9103;-82
2023/12/21 05:42:51;;;;;;;;;0.00;0.00;;;;;;;;5066077;28;9204;-81
2023/12/21 05:45:22;;;;;;;;;0.00;0.00;;;;;;;;5051365;28;9985;-81
2023/12/21 05:47:49;;;;;;;;;1.00;0.00;;;;;;;;5057307;28;9216;-82
2023/12/21 05:50:17;;;;;;;;;0.00;0.00;;;;;;;;5068678;28;9046;-81
2023/12/21 05:52:46;;;;;;;;;0.00;0.00;;;;;;;;5065722;28;9075;-81
2023/12/21 05:55:15;;;;;;;;;0.00;0.00;;;;;;;;5070626;28;9164;-82
2023/12/21 05:57:43;;;;;;;;;0.00;0.00;;;;;;;;5070315;28;9183;-81
2023/12/21 06:00:12;;;;;;;;;0.00;0.00;;;;;;;;5069673;28;9079;-82
2023/12/21 06:02:42;;;;;;;;;0.00;0.00;;;;;;;;5070638;28;9115;-81
2023/12/21 06:05:10;;;;;;;;;0.00;0.00;;;;;;;;5060661;28;9286;-81
2023/12/21 06:07:37;;;;;;;;;0.00;0.00;;;;;;;;5071441;28;9229;-79
2023/12/21 06:10:06;;;;;;;;;0.00;0.00;;;;;;;;5070338;28;9082;-82
2023/12/21 06:12:34;;;;;;;;;0.00;0.00;;;;;;;;5062001;28;9190;-78
2023/12/21 06:15:01;;;;;;;;;0.00;0.00;;;;;;;;5073547;28;9024;-78
2023/12/21 06:17:28;;;;;;;;;0.00;0.00;;;;;;;;5075061;28;9034;-80
2023/12/21 06:19:58;;;;;;;;;0.00;0.00;;;;;;;;5065250;28;9065;-75
2023/12/21 06:22:27;;;;;;;;;0.00;0.00;;;;;;;;5067402;28;9021;-75
2023/12/21 06:24:54;;;;;;;;;1.00;0.00;;;;;;;;5061004;28;9106;-74
2023/12/21 06:27:24;;;;;;;;;1.00;0.00;;;;;;;;5070664;28;9225;-77
2023/12/21 06:29:51;;;;;;;;;0.00;0.00;;;;;;;;5076455;28;9022;-75
2023/12/21 06:32:22;;;;;;;;;0.00;0.00;;;;;;;;5066803;28;8964;-72
2023/12/21 06:34:57;;;;;;;;;0.00;0.00;;;;;;;;5058812;28;9238;-79
2023/12/21 06:37:24;;;;;;;;;0.00;0.00;;;;;;;;5071476;28;9161;-74
2023/12/21 06:39:51;;;;;;;;;0.00;0.00;;;;;;;;5071383;28;9174;-78
2023/12/21 06:42:21;;;;;;;;;1.00;0.00;;;;;;;;5068983;28;9100;-75
2023/12/21 06:44:49;;;;;;;;;0.00;0.00;;;;;;;;5068833;28;9137;-78
2023/12/21 06:47:17;;;;;;;;;0.00;0.00;;;;;;;;5068627;28;9874;-79
2023/12/21 06:49:47;;;;;;;;;0.00;0.00;;;;;;;;5069065;28;9091;-76
2023/12/21 06:52:32;;;;;;;;;0.00;0.00;;;;;;;;5067978;28;10137;-80
2023/12/21 06:55:05;;;;;;;;;0.00;0.00;;;;;;;;5069098;28;9041;-81
2023/12/21 06:57:34;;;;;;;;;0.33;0.00;;;;;;;;5069424;28;9095;-80
2023/12/21 07:00:05;;;;;;;;;0.33;0.00;;;;;;;;5068823;28;9099;-76
2023/12/21 07:02:32;;;;;;;;;0.00;0.00;;;;;;;;5072450;28;8969;-76
2023/12/21 07:04:59;;;;;;;;;0.00;0.00;;;;;;;;5070291;28;9035;-80
2023/12/21 07:07:26;;;;;;;;;0.00;0.00;;;;;;;;5069233;28;9062;-77
2023/12/21 07:09:54;;;;;;;;;0.00;0.00;;;;;;;;5067293;28;9152;-78
2023/12/21 07:12:22;;;;;;;;;0.00;0.00;;;;;;;;5068567;28;9023;-76
2023/12/21 07:14:50;;;;;;;;;0.00;0.00;;;;;;;;5067578;28;9114;-78
2023/12/21 07:17:21;;;;;;;;;0.00;0.00;;;;;;;;5069143;28;9091;-78
2023/12/21 07:19:48;;;;;;;;;0.33;0.00;;;;;;;;5068964;28;9078;-80
2023/12/21 07:22:15;;;;;;;;;0.00;0.00;;;;;;;;5067261;28;9075;-78
2023/12/21 07:24:42;;;;;;;;;0.00;0.00;;;;;;;;5067884;28;9065;-78
2023/12/21 07:27:09;;;;;;;;;2.33;0.00;;;;;;;;5067992;28;8992;-79
2023/12/21 07:29:37;;;;;;;;;0.00;0.00;;;;;;;;5068038;28;9019;-79
2023/12/21 07:32:04;;;;;;;;;0.00;0.00;;;;;;;;5066465;28;8975;-79
2023/12/21 07:34:35;;;;;;;;;0.00;0.00;;;;;;;;5067555;28;9178;-79
2023/12/21 07:37:02;;;;;;;;;0.00;0.00;;;;;;;;5068623;28;9084;-79
2023/12/21 07:39:30;;;;;;;;;0.00;0.00;;;;;;;;5067473;28;9115;-77
2023/12/21 07:41:57;;;;;;;;;0.00;0.00;;;;;;;;5075593;28;9176;-76
2023/12/21 07:44:24;;;;;;;;;0.00;0.00;;;;;;;;5085819;28;9154;-76
2023/12/21 07:46:53;;;;;;;;;0.00;0.00;;;;;;;;5069206;28;9966;-78
2023/12/21 07:49:20;;;;;;;;;0.00;0.00;;;;;;;;5056574;28;9129;-79
2023/12/21 07:51:49;;;;;;;;;0.00;0.00;;;;;;;;5066900;28;9022;-79
2023/12/21 07:54:19;;;;;;;;;0.00;0.00;;;;;;;;5068963;28;8935;-78
2023/12/21 07:56:46;;;;;;;;;0.00;0.00;;;;;;;;5068897;28;9266;-79
2023/12/21 07:59:13;;;;;;;;;0.00;0.00;;;;;;;;5070468;28;9112;-81
2023/12/21 08:01:43;;;;;;;;;0.00;0.00;;;;;;;;5070429;28;8932;-75
2023/12/21 08:04:10;;;;;;;;;0.00;0.00;;;;;;;;5072897;28;9019;-78
2023/12/21 08:06:38;;;;;;;;;2.33;1.00;;;;;;;;5073692;28;9136;-77
2023/12/21 08:09:07;;;;;;;;;0.00;0.00;;;;;;;;5067313;28;9215;-76
2023/12/21 08:11:34;;;;;;;;;0.00;0.00;;;;;;;;5072865;28;9100;-77
2023/12/21 08:14:02;;;;;;;;;2.00;0.00;;;;;;;;5073270;28;9041;-74
2023/12/21 08:16:29;;;;;;;;;1.00;1.00;;;;;;;;5073070;28;9064;-76
2023/12/21 08:18:56;;;;;;;;;0.00;0.00;;;;;;;;5072337;28;9304;-76
2023/12/21 08:21:24;;;;;;;;;1.00;1.00;;;;;;;;5065744;28;9048;-76
2023/12/21 08:23:53;;;;;;;;;1.00;1.00;;;;;;;;5069684;28;9010;-77
2023/12/21 08:26:22;;;;;;;;;0.00;0.00;;;;;;;;5064447;28;9111;-76
2023/12/21 08:28:49;;;;;;;;;0.00;0.00;;;;;;;;5067943;28;9213;-78
2023/12/21 08:31:24;;;;;;;;;1.00;1.00;;;;;;;;5068228;28;9020;-78
2023/12/21 08:33:53;;;;;;;;;1.00;1.00;;;;;;;;5055492;28;9039;-76
2023/12/21 08:36:20;;;;;;;;;0.00;0.00;;;;;;;;5067613;28;9206;-78
2023/12/21 08:38:48;;;;;;;;;2.00;0.33;;;;;;;;5066401;28;9794;-74
2023/12/21 08:41:15;;;;;;;;;0.00;0.00;;;;;;;;5054963;28;9111;-77
2023/12/21 08:43:44;;;;;;;;;1.00;1.00;;;;;;;;5067698;28;9024;-77
2023/12/21 08:46:12;;;;;;;;;0.00;0.00;;;;;;;;5067070;28;9673;-75
2023/12/21 08:48:39;;;;;;;;;0.00;0.00;;;;;;;;5065819;28;9597;-78
2023/12/21 08:51:06;;;;;;;;;0.00;0.00;;;;;;;;5070327;28;8908;-78
2023/12/21 08:53:33;;;;;;;;;0.00;0.00;;;;;;;;5070133;28;8939;-77
2023/12/21 08:56:01;;;;;;;;;0.00;0.00;;;;;;;;5067914;28;9862;-76
2023/12/21 08:58:28;;;;;;;;;1.00;0.00;;;;;;;;5066775;28;8914;-77
2023/12/21 09:00:58;;;;;;;;;0.00;0.00;;;;;;;;5067005;28;9664;-77
2023/12/21 09:03:25;;;;;;;;;0.00;0.00;;;;;;;;5067003;28;8835;-75
2023/12/21 09:05:58;;;;;;;;;1.00;1.00;;;;;;;;5067903;28;8870;-74
2023/12/21 09:08:28;;;;;;;;;0.00;0.00;;;;;;;;5067558;28;9118;-77
2023/12/21 09:10:56;;;;;;;;;2.00;0.00;;;;;;;;5066374;28;8989;-76
2023/12/21 09:13:23;;;;;;;;;0.00;0.00;;;;;;;;5068047;28;8931;-74
2023/12/21 09:15:53;;;;;;;;;1.67;1.67;;;;;;;;5070017;28;9107;-77
2023/12/21 09:18:22;;;;;;;;;0.75;0.75;;;;;;;;5068701;28;9087;-76
2023/12/21 09:20:49;;;;;;;;;0.00;0.00;;;;;;;;5066962;28;8827;-76
2023/12/21 09:23:16;;;;;;;;;1.00;1.00;;;;;;;;5064928;28;8850;-78
2023/12/21 09:25:43;;;;;;;;;2.00;1.00;;;;;;;;5070658;28;8989;-77
2023/12/21 09:28:10;;;;;;;;;1.00;1.00;;;;;;;;5069964;28;8966;-78
2023/12/21 09:30:38;;;;;;;;;0.75;0.75;;;;;;;;5070525;28;8899;-77
2023/12/21 09:33:05;;;;;;;;;1.67;1.00;;;;;;;;5064559;28;9007;-77
2023/12/21 09:35:34;;;;;;;;;1.50;1.00;;;;;;;;5063906;28;8960;-74
2023/12/21 09:38:01;;;;;;;;;3.00;1.50;;;;;;;;5069847;28;8854;-77
2023/12/21 09:40:34;;;;;;;;;3.25;2.00;;;;;;;;5069950;28;9005;-76
2023/12/21 09:43:05;;;;;;;;;0.25;0.25;;;;;;;;5069779;28;8874;-78
2023/12/21 09:45:36;;;;;;;;;1.50;1.50;;;;;;;;5070115;28;8966;-78
2023/12/21 09:48:04;;;;;;;;;2.00;2.00;;;;;;;;5071533;28;8878;-76
2023/12/21 09:50:33;;;;;;;;;0.00;0.00;;;;;;;;5072601;28;8882;-77
2023/12/21 09:53:01;;;;;;;;;1.75;1.75;;;;;;;;5075500;28;8855;-78
2023/12/21 09:55:30;;;;;;;;;2.00;2.00;;;;;;;;5074969;28;8851;-78
2023/12/21 09:57:58;;;;;;;;;1.00;1.00;;;;;;;;5068885;28;8850;-77
2023/12/21 10:00:25;;;;;;;;;2.00;2.00;;;;;;;;5074657;28;8755;-77
2023/12/21 10:02:53;;;;;;;;;4.25;3.00;;;;;;;;5076097;28;8932;-76
2023/12/21 10:05:21;;;;;;;;;3.00;3.00;;;;;;;;5066410;28;8879;-76
2023/12/21 10:07:49;;;;;;;;;4.00;4.00;;;;;;;;5061785;28;8953;-75
2023/12/21 10:10:17;;;;;;;;;2.75;2.75;;;;;;;;5059275;28;9732;-74
2023/12/21 10:12:44;;;;;;;;;2.50;2.50;;;;;;;;5071806;28;8847;-74
2023/12/21 10:15:12;;;;;;;;;4.00;4.00;;;;;;;;5066641;28;8957;-79
2023/12/21 10:17:39;;;;;;;;;5.00;3.00;;;;;;;;5054845;28;8958;-78
2023/12/21 10:20:11;;;;;;;;;3.00;3.00;;;;;;;;5062433;28;8869;-77
2023/12/21 10:22:39;;;;;;;;;3.67;3.67;;;;;;;;5065664;28;9866;-76
2023/12/21 10:25:09;;;;;;;;;2.00;2.00;;;;;;;;5069408;28;9053;-75
2023/12/21 10:27:36;;;;;;;;;3.25;3.25;;;;;;;;5069255;28;8843;-76
2023/12/21 10:30:04;;;;;;;;;3.00;3.00;;;;;;;;5069431;28;8877;-74
2023/12/21 10:32:32;;;;;;;;;6.50;5.00;;;;;;;;5067744;28;8843;-78
2023/12/21 10:35:01;;;;;;;;;7.33;6.00;;;;;;;;5061234;28;8847;-75
2023/12/21 10:37:28;;;;;;;;;5.25;4.00;;;;;;;;5072694;28;9040;-73
2023/12/21 10:39:59;;;;;;;;;7.25;5.00;;;;;;;;5070725;28;8978;-77
2023/12/21 10:42:28;;;;;;;;;4.50;3.50;;;;;;;;5069855;28;8847;-76
2023/12/21 10:44:59;;;;;;;;;5.00;4.75;;;;;;;;5068753;28;9513;-76
2023/12/21 10:47:26;;;;;;;;;5.25;4.00;;;;;;;;5068509;28;8838;-76
2023/12/21 10:49:53;;;;;;;;;7.67;5.00;;;;;;;;5069431;28;8866;-75
2023/12/21 10:52:23;;;;;;;;;5.75;5.75;;;;;;;;5068151;28;9062;-76
2023/12/21 10:54:54;;;;;;;;;6.67;4.67;;;;;;;;5069488;28;8881;-76
2023/12/21 10:57:21;;;;;;;;;5.67;5.67;;;;;;;;5068320;28;9019;-74
2023/12/21 10:59:50;;;;;;;;;6.50;5.25;;;;;;;;5068192;28;8953;-76
2023/12/21 11:02:19;;;;;;;;;8.00;5.00;;;;;;;;5056915;28;8909;-76
2023/12/21 11:04:46;;;;;;;;;4.25;4.25;;;;;;;;5075999;28;8867;-76
2023/12/21 11:07:14;;;;;;;;;8.00;4.67;;;;;;;;5077118;28;8879;-75
2023/12/21 11:09:42;;;;;;;;;7.50;4.75;;;;;;;;5076175;28;9025;-78
2023/12/21 11:12:10;;;;;;;;;5.25;3.75;;;;;;;;5069068;28;8881;-78
2023/12/21 11:14:39;;;;;;;;;7.00;7.00;;;;;;;;5060320;28;8845;-77
2023/12/21 11:17:10;;;;;;;;;13.33;8.67;;;;;;;;5065692;28;8957;-79
2023/12/21 11:19:45;;;;;;;;;6.50;6.50;;;;;;;;5065969;28;8965;-77
2023/12/21 11:22:14;;;;;;;;;9.50;9.50;;;;;;;;5072407;28;8961;-77
2023/12/21 11:24:47;;;;;;;;;15.00;10.67;;;;;;;;5073169;28;8843;-78
2023/12/21 11:27:14;;;;;;;;;15.33;9.33;;;;;;;;5072969;28;9116;-78
2023/12/21 11:29:41;;;;;;;;;12.00;9.33;;;;;;;;5068374;28;9255;-77
2023/12/21 11:32:10;;;;;;;;;14.00;11.00;;;;;;;;5067768;28;8986;-79
2023/12/21 11:34:39;;;;;;;;;8.00;8.00;;;;;;;;5055434;28;9090;-77
2023/12/21 11:37:17;;;;;;;;;13.00;13.00;;;;;;;;5071759;28;9106;-76
2023/12/21 11:39:49;;;;;;;;;11.33;11.33;;;;;;;;5059949;28;9203;-81
2023/12/21 11:42:16;;;;;;;;;15.67;12.67;;;;;;;;5066258;28;9179;-75
2023/12/21 11:44:50;;;;;;;;;10.33;10.33;;;;;;;;5073927;28;9022;-75
2023/12/21 11:47:18;;;;;;;;;15.33;12.67;;;;;;;;5072569;28;9013;-76
2023/12/21 11:49:46;;;;;;;;;13.67;10.67;;;;;;;;5072653;28;9015;-75
2023/12/21 11:52:24;;;;;;;;;8.00;8.00;;;;;;;;5071154;28;9053;-75
2023/12/21 11:54:51;;;;;;;;;12.67;10.00;;;;;;;;5063125;28;9091;-74
2023/12/21 11:57:18;;;;;;;;;9.00;9.00;;;;;;;;5068987;28;8967;-78
2023/12/21 11:59:46;;;;;;;;;2.25;2.25;;;;;;;;5069087;28;9137;-74
2023/12/21 12:02:14;;;;;;;;;8.75;8.75;;;;;;;;5063801;28;8852;-74
2023/12/21 12:04:49;;;;;;;;;7.67;7.67;;;;;;;;5052707;28;8845;-74
2023/12/21 12:07:18;;;;;;;;;6.00;5.50;;;;;;;;5067669;28;8954;-75
2023/12/21 12:09:46;;;;;;;;;6.25;5.75;;;;;;;;5069816;28;8855;-73
2023/12/21 12:12:16;;;;;;;;;4.75;4.75;;;;;;;;5069660;28;9262;-75
2023/12/21 12:14:45;;;;;;;;;6.50;6.50;;;;;;;;5064968;28;8845;-75
2023/12/21 12:17:12;;;;;;;;;5.00;5.00;;;;;;;;5068205;28;8843;-74
2023/12/21 12:19:39;;;;;;;;;3.25;3.25;;;;;;;;5054376;28;8869;-77
2023/12/21 12:22:08;;;;;;;;;2.00;2.00;;;;;;;;5063451;28;9742;-76
2023/12/21 12:24:35;;;;;;;;;4.25;2.25;;;;;;;;5069739;28;8891;-77
2023/12/21 12:27:02;;;;;;;;;4.75;2.00;;;;;;;;5070603;28;8838;-74
2023/12/21 12:29:35;;;;;;;;;3.00;1.00;;;;;;;;5059838;28;8854;-78
2023/12/21 12:32:03;;;;;;;;;3.00;3.00;;;;;;;;5067920;28;8795;-78
2023/12/21 12:34:30;;;;;;;;;2.00;2.00;;;;;;;;5064684;28;8847;-75
2023/12/21 12:36:57;;;;;;;;;5.00;3.00;;;;;;;;5067550;28;9641;-74
2023/12/21 12:39:28;;;;;;;;;3.50;3.50;;;;;;;;5066176;28;8889;-76
2023/12/21 12:41:57;;;;;;;;;9.75;2.00;;;;;;;;5066286;28;8887;-74
2023/12/21 12:44:25;;;;;;;;;3.00;3.00;;;;;;;;5067435;28;8928;-74
2023/12/21 12:46:52;;;;;;;;;3.50;2.25;;;;;;;;5068277;28;8846;-78
2023/12/21 12:49:22;;;;;;;;;2.50;2.00;;;;;;;;5068731;28;8951;-77
2023/12/21 12:51:56;;;;;;;;;4.00;2.75;;;;;;;;5068295;28;8851;-73
2023/12/21 12:54:34;;;;;;;;;4.00;3.50;;;;;;;;5068991;28;8863;-75
2023/12/21 12:57:03;;;;;;;;;2.75;1.25;;;;;;;;5068002;28;8965;-75
2023/12/21 12:59:34;;;;;;;;;3.25;1.25;;;;;;;;5071065;28;8867;-75
2023/12/21 13:02:01;;;;;;;;;6.25;2.00;;;;;;;;5069999;28;8787;-73
2023/12/21 13:04:28;;;;;;;;;3.75;2.00;;;;;;;;5071120;28;8910;-75
2023/12/21 13:06:56;;;;;;;;;10.50;2.50;;;;;;;;5070247;28;8849;-77
2023/12/21 13:09:23;;;;;;;;;4.50;2.00;;;;;;;;5070795;28;9640;-77
2023/12/21 13:11:54;;;;;;;;;2.50;1.00;;;;;;;;5070929;28;8851;-77
2023/12/21 13:14:21;;;;;;;;;3.00;3.00;;;;;;;;5071289;28;8842;-75
2023/12/21 13:16:49;;;;;;;;;4.00;1.00;;;;;;;;5071656;28;9009;-75
2023/12/21 13:19:17;;;;;;;;;3.00;1.25;;;;;;;;5070374;28;8928;-76
2023/12/21 13:21:44;;;;;;;;;2.75;1.25;;;;;;;;5070080;28;8851;-78
2023/12/21 13:24:11;;;;;;;;;1.00;1.00;;;;;;;;5072380;28;8859;-74
2023/12/21 13:26:38;;;;;;;;;5.25;1.00;;;;;;;;5074611;28;8843;-76
2023/12/21 13:29:08;;;;;;;;;1.00;1.00;;;;;;;;5072450;28;8855;-77
2023/12/21 13:31:35;;;;;;;;;2.00;2.00;;;;;;;;5075415;28;8795;-77
2023/12/21 13:34:03;;;;;;;;;3.00;1.00;;;;;;;;5056132;28;8964;-78
2023/12/21 13:36:30;;;;;;;;;1.00;0.75;;;;;;;;5069073;28;8867;-78
2023/12/21 13:38:58;;;;;;;;;1.00;1.00;;;;;;;;5075664;28;8872;-76
2023/12/21 13:41:28;;;;;;;;;0.00;0.00;;;;;;;;5074928;28;9028;-75
2023/12/21 13:43:55;;;;;;;;;2.25;1.00;;;;;;;;5069861;28;8875;-74
2023/12/21 13:46:24;;;;;;;;;1.00;1.00;;;;;;;;5070964;28;8862;-75
2023/12/21 13:48:51;;;;;;;;;1.75;1.00;;;;;;;;5070420;28;8850;-78
2023/12/21 13:51:19;;;;;;;;;0.00;0.00;;;;;;;;5069347;28;8859;-77
2023/12/21 13:53:46;;;;;;;;;0.00;0.00;;;;;;;;5069862;28;8861;-74
2023/12/21 13:56:16;;;;;;;;;0.00;0.00;;;;;;;;5065337;28;8874;-75
2023/12/21 13:58:43;;;;;;;;;0.25;0.25;;;;;;;;5067838;28;8902;-75
2023/12/21 14:01:10;;;;;;;;;1.50;0.00;;;;;;;;5062654;28;8811;-73
2023/12/21 14:03:39;;;;;;;;;1.00;1.00;;;;;;;;5069211;28;8855;-73
2023/12/21 14:06:07;;;;;;;;;2.25;0.00;;;;;;;;5061057;28;8893;-78
2023/12/21 14:08:34;;;;;;;;;2.00;0.75;;;;;;;;5068316;28;9759;-76
2023/12/21 14:11:01;;;;;;;;;2.00;1.00;;;;;;;;5068824;28;8847;-75
2023/12/21 14:13:31;;;;;;;;;3.50;0.75;;;;;;;;5060610;28;8849;-75
2023/12/21 14:15:58;;;;;;;;;0.00;0.00;;;;;;;;5073322;28;8894;-74
2023/12/21 14:18:25;;;;;;;;;0.00;0.00;;;;;;;;5067050;28;8863;-77
2023/12/21 14:20:54;;;;;;;;;1.50;0.25;;;;;;;;5062860;28;9671;-76
2023/12/21 14:23:21;;;;;;;;;0.00;0.00;;;;;;;;5064842;28;8839;-76
2023/12/21 14:25:49;;;;;;;;;0.00;0.00;;;;;;;;5069416;28;8827;-77
2023/12/21 14:28:19;;;;;;;;;2.50;0.00;;;;;;;;5069666;28;8847;-78
2023/12/21 14:30:48;;;;;;;;;1.00;0.00;;;;;;;;5065953;28;8803;-77
2023/12/21 14:33:15;;;;;;;;;0.75;0.75;;;;;;;;5061920;28;9037;-77
2023/12/21 14:35:43;;;;;;;;;1.67;1.33;;;;;;;;5065678;28;8938;-78
2023/12/21 14:38:11;;;;;;;;;2.75;0.00;;;;;;;;5069103;28;8854;-77
2023/12/21 14:40:39;;;;;;;;;1.00;1.00;;;;;;;;5070735;28;9013;-78
2023/12/21 14:43:06;;;;;;;;;1.00;1.00;;;;;;;;5069742;28;8866;-80
2023/12/21 14:45:44;;;;;;;;;5.25;1.00;;;;;;;;5068886;28;8888;-79
2023/12/21 14:48:13;;;;;;;;;1.50;0.00;;;;;;;;5069710;28;8985;-79
2023/12/21 14:50:40;;;;;;;;;1.50;1.00;;;;;;;;5068633;28;8904;-78
2023/12/21 14:53:07;;;;;;;;;0.50;0.50;;;;;;;;5069051;28;8874;-77
2023/12/21 14:55:40;;;;;;;;;1.00;1.00;;;;;;;;5068760;28;8859;-77
2023/12/21 14:58:07;;;;;;;;;1.00;1.00;;;;;;;;5068108;28;8893;-75
2023/12/21 15:00:34;;;;;;;;;1.00;1.00;;;;;;;;5068659;28;8868;-78